createdAt,value
2018-07-20T00:04:05.726Z,12.90
2018-07-20T00:06:36.702Z,12.90
2018-07-20T00:11:42.366Z,12.90
2018-07-20T00:14:14.402Z,12.90
2018-07-20T00:16:46.560Z,12.80
2018-07-20T00:21:46.318Z,12.90
2018-07-20T00:26:51.246Z,12.80
2018-07-20T00:29:22.278Z,12.80
2018-07-20T00:34:32.986Z,12.70
2018-07-20T00:42:09.038Z,12.60
2018-07-20T00:44:39.018Z,12.50
2018-07-20T00:47:09.151Z,12.50
2018-07-20T00:54:44.154Z,12.30
2018-07-20T00:57:15.158Z,12.30
2018-07-20T01:02:15.574Z,12.30
2018-07-20T01:04:48.658Z,12.30
2018-07-20T01:07:18.686Z,12.30
2018-07-20T01:14:48.939Z,12.20
2018-07-20T01:19:48.743Z,12.30
2018-07-20T01:22:24.761Z,12.30
2018-07-20T01:24:54.718Z,12.30
2018-07-20T01:27:25.737Z,12.30
2018-07-20T01:32:25.638Z,12.40
2018-07-20T01:34:55.679Z,12.40
2018-07-20T01:45:02.994Z,12.60
2018-07-20T01:47:37.149Z,12.60
2018-07-20T01:50:10.125Z,12.70
2018-07-20T01:52:42.437Z,12.80
2018-07-20T01:55:12.961Z,12.90
2018-07-20T01:57:43.026Z,12.90
2018-07-20T02:00:14.169Z,12.90
2018-07-20T02:02:47.246Z,13.00
2018-07-20T02:07:49.881Z,13.00
2018-07-20T02:15:25.993Z,13.00
2018-07-20T02:18:01.446Z,13.00
2018-07-20T02:23:02.465Z,13.00
2018-07-20T02:28:06.518Z,13.10
2018-07-20T02:30:39.993Z,13.10
2018-07-20T02:33:10.110Z,13.20
2018-07-20T02:35:40.330Z,13.20
2018-07-20T02:38:15.442Z,13.20
2018-07-20T02:45:44.670Z,13.40
2018-07-20T02:48:14.666Z,13.40
2018-07-20T02:55:50.505Z,13.60
2018-07-20T02:58:22.458Z,13.60
2018-07-20T03:00:52.402Z,13.80
2018-07-20T03:03:22.377Z,13.80
2018-07-20T03:13:24.526Z,14.70
2018-07-20T03:15:54.565Z,14.80
2018-07-20T03:23:24.946Z,14.90
2018-07-20T03:28:27.759Z,15.10
2018-07-20T03:30:59.754Z,15.20
2018-07-20T03:33:31.738Z,15.20
2018-07-20T03:36:05.026Z,15.40
2018-07-20T03:38:35.117Z,15.50
2018-07-20T03:41:06.199Z,15.60
2018-07-20T03:43:36.317Z,15.70
2018-07-20T03:46:10.550Z,15.80
2018-07-20T03:48:43.981Z,15.90
2018-07-20T03:51:14.157Z,15.90
2018-07-20T03:53:45.278Z,16.00
2018-07-20T03:58:49.278Z,16.20
2018-07-20T04:01:22.254Z,16.20
2018-07-20T04:06:23.417Z,16.20
2018-07-20T04:08:54.275Z,16.30
2018-07-20T04:11:27.641Z,16.30
2018-07-20T04:13:58.505Z,16.40
2018-07-20T04:16:39.209Z,16.60
2018-07-20T04:19:09.101Z,16.70
2018-07-20T04:24:10.557Z,16.90
2018-07-20T04:26:41.461Z,17.00
2018-07-20T04:29:19.517Z,17.10
2018-07-20T04:31:50.453Z,17.20
2018-07-20T04:34:21.369Z,17.30
2018-07-20T04:36:55.461Z,17.40
2018-07-20T04:39:26.322Z,17.50
2018-07-20T04:41:56.217Z,17.70
2018-07-20T04:44:27.369Z,17.80
2018-07-20T04:46:59.973Z,17.80
2018-07-20T04:49:29.989Z,17.90
2018-07-20T04:52:01.809Z,18.00
2018-07-20T04:54:35.333Z,18.00
2018-07-20T04:57:06.261Z,18.10
2018-07-20T04:59:37.231Z,18.10
2018-07-20T05:02:10.977Z,18.20
2018-07-20T05:07:15.725Z,18.30
2018-07-20T05:09:45.661Z,18.40
2018-07-20T05:17:25.625Z,18.60
2018-07-20T05:22:25.165Z,18.80
2018-07-20T05:24:55.077Z,18.80
2018-07-20T05:27:25.041Z,18.90
2018-07-20T05:32:26.505Z,19.00
2018-07-20T05:37:30.873Z,19.20
2018-07-20T05:42:31.341Z,19.90
2018-07-20T05:45:02.806Z,20.50
2018-07-20T05:47:33.749Z,21.10
2018-07-20T05:50:04.749Z,21.30
2018-07-20T05:55:08.929Z,22.00
2018-07-20T05:57:38.813Z,22.40
2018-07-20T06:00:09.777Z,22.60
2018-07-20T06:02:39.805Z,23.00
2018-07-20T06:05:09.693Z,23.30
2018-07-20T06:07:40.641Z,23.70
2018-07-20T06:12:42.172Z,24.30
2018-07-20T06:15:14.133Z,24.50
2018-07-20T06:20:14.825Z,25.10
2018-07-20T06:22:48.462Z,25.30
2018-07-20T06:30:20.645Z,26.10
2018-07-20T06:32:51.454Z,26.40
2018-07-20T06:37:57.381Z,26.80
2018-07-20T06:40:28.267Z,26.90
2018-07-20T06:43:04.993Z,27.00
2018-07-20T06:45:35.862Z,27.10
2018-07-20T06:50:36.381Z,27.00
2018-07-20T06:53:06.296Z,27.30
2018-07-20T06:58:05.737Z,27.50
2018-07-20T07:00:42.260Z,27.50
2018-07-20T07:03:13.061Z,27.80
2018-07-20T07:05:46.681Z,27.60
2018-07-20T07:08:16.484Z,27.70
2018-07-20T07:10:47.269Z,28.20
2018-07-20T07:18:45.073Z,29.10
2018-07-20T07:23:44.520Z,29.70
2018-07-20T07:28:55.740Z,30.10
2018-07-20T07:31:32.264Z,31.00
2018-07-20T07:34:02.124Z,31.50
2018-07-20T07:41:44.957Z,31.60
2018-07-20T07:46:45.605Z,32.90
2018-07-20T07:49:15.441Z,33.00
2018-07-20T07:51:45.741Z,32.80
2018-07-20T07:54:31.992Z,32.90
2018-07-20T07:57:11.660Z,33.10
2018-07-20T07:59:49.505Z,33.20
2018-07-20T08:07:27.684Z,32.20
2018-07-20T08:12:43.372Z,31.60
2018-07-20T08:17:54.592Z,30.60
2018-07-20T08:20:24.521Z,30.60
2018-07-20T08:23:00.075Z,31.20
2018-07-20T08:25:30.785Z,31.60
2018-07-20T08:28:06.156Z,32.20
2018-07-20T08:30:37.153Z,32.70
2018-07-20T08:33:12.889Z,33.30
2018-07-20T08:40:50.064Z,35.00
2018-07-20T08:43:23.316Z,35.10
2018-07-20T08:45:54.204Z,35.70
2018-07-20T08:53:29.633Z,32.80
2018-07-20T08:56:02.566Z,32.70
2018-07-20T09:01:22.349Z,32.90
2018-07-20T09:03:56.445Z,33.00
2018-07-20T09:06:26.205Z,33.50
2018-07-20T09:08:57.044Z,33.80
2018-07-20T09:11:26.957Z,34.10
2018-07-20T09:13:56.970Z,33.90
2018-07-20T09:16:27.741Z,33.50
2018-07-20T09:18:57.981Z,33.20
2018-07-20T09:21:44.256Z,32.80
2018-07-20T09:31:58.046Z,33.30
2018-07-20T09:34:27.865Z,34.10
2018-07-20T09:36:57.704Z,34.40
2018-07-20T09:39:28.604Z,35.60
2018-07-20T09:44:32.003Z,36.60
2018-07-20T09:47:11.665Z,36.50
2018-07-20T09:49:43.501Z,36.90
2018-07-20T09:54:49.432Z,36.50
2018-07-20T09:57:22.944Z,36.10
2018-07-20T09:59:57.360Z,35.80
2018-07-20T10:07:34.269Z,35.20
2018-07-20T10:12:40.029Z,36.40
2018-07-20T10:15:10.885Z,36.60
2018-07-20T10:17:42.781Z,37.10
2018-07-20T10:30:20.808Z,39.20
2018-07-20T10:32:51.608Z,39.90
2018-07-20T10:35:24.529Z,40.20
2018-07-20T10:37:58.428Z,39.80
2018-07-20T10:40:28.729Z,39.30
2018-07-20T10:45:36.589Z,38.00
2018-07-20T10:48:06.549Z,36.50
2018-07-20T10:50:36.348Z,35.50
2018-07-20T10:53:06.649Z,35.20
2018-07-20T10:55:37.412Z,34.60
2018-07-20T10:58:09.208Z,33.90
2018-07-20T11:10:40.856Z,32.30
2018-07-20T11:15:41.348Z,33.30
2018-07-20T11:25:47.151Z,39.20
2018-07-20T11:28:16.988Z,39.10
2018-07-20T11:33:32.800Z,38.60
2018-07-20T11:38:41.132Z,37.50
2018-07-20T11:43:55.224Z,35.50
2018-07-20T11:46:25.140Z,34.70
2018-07-20T11:48:57.000Z,34.10
2018-07-20T11:54:11.927Z,33.30
2018-07-20T11:56:44.860Z,32.90
2018-07-20T11:59:18.871Z,32.40
2018-07-20T12:01:48.724Z,32.00
2018-07-20T12:04:23.791Z,31.90
2018-07-20T12:07:01.281Z,31.10
2018-07-20T12:09:32.152Z,31.10
2018-07-20T12:12:01.940Z,31.50
2018-07-20T12:14:32.764Z,31.90
2018-07-20T12:22:08.360Z,35.30
2018-07-20T12:24:42.264Z,36.10
2018-07-20T12:29:45.204Z,36.00
2018-07-20T12:32:15.100Z,36.10
2018-07-20T12:39:48.851Z,36.20
2018-07-20T12:42:24.300Z,36.50
2018-07-20T12:45:07.531Z,35.50
2018-07-20T12:47:37.409Z,36.00
2018-07-20T12:50:09.353Z,37.50
2018-07-20T12:52:41.116Z,38.00
2018-07-20T13:00:16.107Z,39.80
2018-07-20T13:02:46.972Z,39.70
2018-07-20T13:05:16.865Z,39.10
2018-07-20T13:07:46.776Z,38.40
2018-07-20T13:10:17.676Z,37.20
2018-07-20T13:17:52.207Z,36.60
2018-07-20T13:25:21.092Z,37.40
2018-07-20T13:27:56.408Z,35.70
2018-07-20T13:30:26.347Z,34.80
2018-07-20T13:32:57.287Z,34.10
2018-07-20T13:35:29.151Z,34.40
2018-07-20T13:38:00.085Z,35.40
2018-07-20T13:40:31.975Z,37.30
2018-07-20T13:48:07.899Z,38.50
2018-07-20T13:50:37.819Z,37.80
2018-07-20T13:53:12.135Z,37.70
2018-07-20T13:55:44.020Z,37.80
2018-07-20T13:58:15.871Z,37.30
2018-07-20T14:00:45.807Z,37.20
2018-07-20T14:03:15.963Z,38.50
2018-07-20T14:05:47.866Z,39.00
2018-07-20T14:08:18.800Z,38.70
2018-07-20T14:10:58.483Z,40.40
2018-07-20T14:13:29.475Z,41.30
2018-07-20T14:16:01.355Z,41.60
2018-07-20T14:18:31.187Z,42.10
2018-07-20T14:21:01.083Z,40.70
2018-07-20T14:23:32.959Z,40.40
2018-07-20T14:26:03.787Z,40.60
2018-07-20T14:28:34.620Z,40.50
2018-07-20T14:31:08.659Z,39.90
2018-07-20T14:33:38.492Z,39.30
2018-07-20T14:38:38.779Z,38.20
2018-07-20T14:41:08.720Z,36.70
2018-07-20T14:43:39.619Z,36.20
2018-07-20T14:46:09.807Z,35.30
2018-07-20T14:58:44.675Z,32.70
2018-07-20T15:08:53.907Z,33.20
2018-07-20T15:13:54.375Z,34.80
2018-07-20T15:16:25.271Z,36.30
2018-07-20T15:21:32.275Z,35.50
2018-07-20T15:24:02.187Z,36.40
2018-07-20T15:26:32.465Z,37.50
2018-07-20T15:29:02.259Z,39.30
2018-07-20T15:31:32.027Z,40.80
2018-07-20T15:34:03.878Z,41.60
2018-07-20T15:36:37.011Z,42.50
2018-07-20T15:39:10.431Z,40.80
2018-07-20T15:41:46.254Z,39.10
2018-07-20T15:44:20.759Z,39.10
2018-07-20T15:46:50.955Z,38.90
2018-07-20T15:49:25.602Z,38.90
2018-07-20T15:53:35.464Z,38.90
2018-07-20T15:54:50.118Z,38.90
2018-07-20T16:00:00.650Z,39.10
2018-07-20T16:02:30.350Z,39.50
2018-07-20T16:05:01.147Z,39.40
2018-07-20T16:07:38.478Z,39.60
2018-07-20T16:10:07.798Z,38.90
2018-07-20T16:15:19.739Z,38.50
2018-07-20T16:17:49.534Z,38.40
2018-07-20T16:20:25.003Z,38.50
2018-07-20T16:23:13.255Z,39.10
2018-07-20T16:25:48.334Z,39.30
2018-07-20T16:28:36.008Z,39.80
2018-07-20T16:31:31.659Z,39.60
2018-07-20T16:36:32.139Z,39.00
2018-07-20T16:44:18.643Z,35.30
2018-07-20T16:46:50.451Z,33.80
2018-07-20T16:49:20.355Z,33.10
2018-07-20T16:51:50.219Z,32.80
2018-07-20T16:54:28.371Z,32.70
2018-07-20T16:56:59.858Z,32.40
2018-07-20T17:02:04.491Z,31.60
2018-07-20T17:07:15.691Z,31.10
2018-07-20T17:09:47.536Z,30.80
2018-07-20T17:12:18.404Z,30.90
2018-07-20T17:14:48.279Z,30.80
2018-07-20T17:17:18.103Z,30.80
2018-07-20T17:19:48.028Z,30.60
2018-07-20T17:22:41.219Z,30.50
2018-07-20T17:25:13.272Z,30.20
2018-07-20T17:27:49.071Z,30.00
2018-07-20T17:30:19.928Z,29.80
2018-07-20T17:32:50.772Z,29.70
2018-07-20T17:35:20.692Z,29.50
2018-07-20T17:40:22.096Z,29.30
2018-07-20T17:50:22.671Z,28.90
2018-07-20T17:55:24.205Z,28.70
2018-07-20T17:57:56.164Z,28.70
2018-07-20T18:00:34.143Z,28.50
2018-07-20T18:03:09.419Z,28.30
2018-07-20T18:08:11.643Z,28.00
2018-07-20T18:10:42.527Z,27.80
2018-07-20T18:33:11.279Z,26.60
2018-07-20T18:38:17.215Z,26.40
2018-07-20T18:40:47.288Z,26.30
2018-07-20T18:43:18.408Z,26.20
2018-07-20T18:48:33.547Z,26.00
2018-07-20T18:53:33.007Z,25.50
2018-07-20T18:58:36.862Z,24.90
2018-07-20T19:01:06.883Z,24.60
2018-07-20T19:03:37.774Z,24.20
2018-07-20T19:26:12.671Z,23.20
2018-07-20T19:28:43.586Z,23.30
2018-07-20T19:33:47.382Z,23.10
2018-07-20T19:43:55.847Z,22.60
2018-07-20T19:46:26.807Z,22.60
2018-07-20T19:49:03.678Z,22.60
2018-07-20T19:56:39.730Z,22.30
2018-07-20T19:59:09.743Z,22.10
2018-07-20T20:04:10.380Z,22.00
2018-07-20T20:09:14.498Z,22.00
2018-07-20T20:11:44.575Z,22.10
2018-07-20T20:14:14.706Z,22.10
2018-07-20T20:24:21.342Z,22.30
2018-07-20T20:26:55.270Z,22.40
2018-07-20T20:29:30.565Z,22.40
2018-07-20T20:32:00.482Z,22.40
2018-07-20T20:39:32.350Z,22.20
2018-07-20T20:42:03.342Z,22.20
2018-07-20T20:44:33.406Z,22.10
2018-07-20T20:47:03.619Z,22.00
2018-07-20T20:49:34.690Z,22.10
2018-07-20T20:57:09.474Z,22.20
2018-07-20T21:09:43.744Z,22.30
2018-07-20T21:12:14.804Z,22.40
2018-07-20T21:14:46.854Z,22.40
2018-07-20T21:22:18.662Z,22.40
2018-07-20T21:27:24.390Z,22.40
2018-07-20T21:29:56.598Z,22.40
2018-07-20T21:32:33.646Z,22.50
2018-07-20T21:35:04.642Z,22.50
2018-07-20T21:37:35.646Z,22.40
2018-07-20T21:45:06.170Z,22.50
2018-07-20T21:47:38.102Z,22.50
2018-07-20T21:50:12.254Z,22.50
2018-07-20T21:52:44.261Z,22.50
2018-07-20T21:55:18.640Z,22.40
2018-07-20T22:00:21.494Z,22.40
2018-07-20T22:02:54.121Z,22.50
2018-07-20T22:05:25.303Z,22.30
2018-07-20T22:07:55.230Z,22.00
2018-07-20T22:10:27.354Z,21.80
2018-07-20T22:12:58.479Z,21.50
2018-07-20T22:15:28.594Z,21.30
2018-07-20T22:20:32.142Z,21.00
2018-07-20T22:23:02.034Z,20.90
2018-07-20T22:30:32.786Z,20.90
2018-07-20T22:35:35.342Z,20.70
2018-07-20T22:40:35.158Z,20.80
2018-07-20T22:48:07.566Z,20.50
2018-07-20T22:50:39.634Z,20.40
2018-07-20T22:53:16.209Z,20.30
2018-07-20T22:55:46.222Z,20.20
2018-07-20T23:00:51.838Z,20.20
2018-07-20T23:03:23.937Z,20.10
2018-07-20T23:05:57.538Z,20.00
2018-07-20T23:13:32.414Z,19.90
2018-07-20T23:21:03.960Z,19.60
2018-07-20T23:23:34.015Z,19.50
2018-07-20T23:26:05.342Z,19.40
2018-07-20T23:28:41.054Z,19.40
2018-07-20T23:33:45.790Z,19.20
2018-07-20T23:36:21.385Z,19.20
2018-07-20T23:38:51.527Z,19.10
2018-07-20T23:41:23.662Z,19.00
2018-07-20T23:43:55.760Z,19.10
2018-07-20T23:46:26.801Z,19.10
2018-07-20T23:48:56.790Z,19.10
2018-07-20T23:51:31.809Z,19.10
2018-07-20T23:54:02.805Z,19.10
2018-07-20T23:56:33.193Z,19.20
2018-07-20T23:59:03.325Z,19.20
